Tur — UVYQ — position and weather

sailwx.info

Track history (hours):
 
Tides and Currents Weather Stations Pressure Air Temp Water Temp Dewpoint Dewpoint Depression Visibility Wind Speed Wind Dir Waves Ship Positions

Tur

Last reported at 2014-Nov-24 02:29 UTC. Time now 2014-Nov-24 02:48 UTC.
Position N 46°51' E 031°59'.

Length 35 m.

Type: Tug. MMSI: 272064600.

Date/timePositionNaut miles runAvg speedWind from/ knotsBaromVisibWave heightAir tempDewpointWater temp
2014-Nov-24 02:29N 46°51' E 031°59'0 0.0
2014-Nov-24 01:32N 46°51' E 031°59'0 0.0
2014-Nov-24 00:32N 46°51' E 031°59'0 0.0
2014-Nov-23 23:32N 46°51' E 031°59'0 0.0
2014-Nov-23 22:32N 46°51' E 031°59'0 0.0
2014-Nov-23 21:32N 46°51' E 031°59'0 0.0
2014-Nov-23 18:32N 46°51' E 031°59'0 0.0
2014-Nov-23 17:32N 46°51' E 031°59'0 0.0
2014-Nov-23 16:32N 46°51' E 031°59'0 0.0
2014-Nov-23 15:32N 46°51' E 031°59'0 0.0
2014-Nov-23 14:32N 46°51' E 031°59'0 0.0
2014-Nov-23 13:33N 46°51' E 031°59'0 0.0
2014-Nov-23 12:31N 46°51' E 031°59'0 0.0
2014-Nov-23 11:31N 46°51' E 031°59'0 0.0
2014-Nov-23 10:31N 46°51' E 031°59'0 0.0
2014-Nov-23 09:31N 46°51' E 031°59'0 0.0
2014-Nov-23 08:32N 46°51' E 031°59'0 0.0
2014-Nov-23 07:31N 46°51' E 031°59'0 0.0
2014-Nov-23 06:32N 46°51' E 031°59'0 0.2
2014-Nov-23 05:33N 46°51' E 031°59'0 0.2
2014-Nov-23 04:32N 46°51' E 031°59'0 0.0
2014-Nov-23 03:32N 46°51' E 031°59'0 0.0
2014-Nov-23 02:32N 46°51' E 031°59'0 0.0
2014-Nov-23 01:32N 46°51' E 031°59'0 0.0
2014-Nov-23 00:32N 46°51' E 031°59'0 0.0
2014-Nov-22 23:32N 46°51' E 031°59'0 0.0
2014-Nov-22 22:32N 46°51' E 031°59'0 0.0
2014-Nov-22 21:29N 46°51' E 031°59'0 0.0
2014-Nov-22 20:32N 46°51' E 031°59'0 0.0
2014-Nov-22 19:33N 46°51' E 031°59'0 0.0
2014-Nov-22 18:32N 46°51' E 031°59'0 0.0
2014-Nov-22 17:29N 46°51' E 031°59'0 0.3
2014-Nov-22 16:30N 46°51' E 031°59'0 0.1
2014-Nov-22 15:31N 46°51' E 031°59'0 0.0
2014-Nov-22 14:31N 46°51' E 031°59'0 0.0
2014-Nov-22 13:32N 46°51' E 031°59'0 0.0
2014-Nov-22 12:32N 46°51' E 031°59'0 0.0
2014-Nov-22 11:32N 46°51' E 031°59'2 1.5
2014-Nov-22 10:31N 46°50' E 031°57'1 0.9
2014-Nov-22 09:27N 46°50' E 031°56'2 2.4
2014-Nov-22 08:33N 46°51' E 031°59'0 0.0
2014-Nov-22 07:33N 46°51' E 031°59'0 0.0
2014-Nov-22 06:33N 46°51' E 031°59'0 0.0
2014-Nov-22 05:33N 46°51' E 031°59'0 0.0
2014-Nov-22 04:33N 46°51' E 031°59'0 0.0
2014-Nov-22 03:33N 46°51' E 031°59'0 0.0
2014-Nov-22 02:33N 46°51' E 031°59'0 0.0
2014-Nov-22 01:33N 46°51' E 031°59'0 0.0
2014-Nov-22 00:33N 46°51' E 031°59'0 0.0
2014-Nov-21 23:33N 46°51' E 031°59'0 0.0
2014-Nov-21 22:33N 46°51' E 031°59'0 0.0
2014-Nov-21 21:33N 46°51' E 031°59'0 0.0
2014-Nov-21 20:33N 46°51' E 031°59'2 2.4
2014-Nov-21 19:33N 46°50' E 031°56'1 1.1
2014-Nov-21 18:32N 46°50' E 031°57'1 1.3
2014-Nov-21 17:31N 46°51' E 031°59'0 0.0
2014-Nov-21 16:32N 46°51' E 031°59'0 0.0
2014-Nov-21 15:32N 46°51' E 031°59'0 0.0
2014-Nov-21 14:32N 46°51' E 031°59'0 0.0
2014-Nov-21 09:32N 46°51' E 031°59'0 0.0
2014-Nov-21 08:32N 46°51' E 031°59'0 0.0
2014-Nov-21 07:32N 46°51' E 031°59'0 0.0
2014-Nov-21 06:32N 46°51' E 031°59'0 0.0
2014-Nov-21 05:32N 46°51' E 031°59'0 0.0
2014-Nov-21 04:32N 46°51' E 031°59'0 0.0
2014-Nov-21 03:32N 46°51' E 031°59'0 0.0
2014-Nov-21 02:33N 46°51' E 031°59'0 0.0
2014-Nov-21 01:33N 46°51' E 031°59'0 0.0
2014-Nov-21 00:33N 46°51' E 031°59'0 0.0
2014-Nov-20 23:33N 46°51' E 031°59'0 0.0
2014-Nov-20 22:33N 46°51' E 031°59'0 0.0
2014-Nov-20 21:31N 46°51' E 031°59'0 0.0
2014-Nov-20 20:31N 46°51' E 031°59'0 0.0
2014-Nov-20 19:31N 46°51' E 031°59'0 0.0
2014-Nov-20 18:33N 46°51' E 031°59'0 0.0
2014-Nov-20 17:33N 46°51' E 031°59'0 0.0
2014-Nov-20 16:33N 46°51' E 031°59'0 0.0
2014-Nov-20 15:33N 46°51' E 031°59'0 0.0
2014-Nov-20 14:33N 46°51' E 031°59'0 0.0
2014-Nov-20 13:33N 46°51' E 031°59'0 0.0
2014-Nov-20 12:30N 46°51' E 031°59'0 0.0
2014-Nov-20 11:31N 46°51' E 031°59'0 0.0
2014-Nov-20 10:31N 46°51' E 031°59'0 0.0
2014-Nov-20 09:33N 46°51' E 031°59'0 0.0
2014-Nov-20 08:31N 46°51' E 031°59'0 0.0
2014-Nov-20 07:31N 46°51' E 031°59'0 0.0
2014-Nov-20 06:31N 46°51' E 031°59'0 0.0
2014-Nov-20 05:31N 46°51' E 031°59'0 0.0
2014-Nov-20 04:31N 46°51' E 031°59'0 0.0
2014-Nov-20 03:31N 46°51' E 031°59'0 0.0
2014-Nov-20 02:31N 46°51' E 031°59'0 0.0
2014-Nov-20 01:32N 46°51' E 031°59'0 0.0
2014-Nov-20 00:32N 46°51' E 031°59'0 0.0
2014-Nov-19 23:32N 46°51' E 031°59'0 0.0
2014-Nov-19 22:32N 46°51' E 031°59'0 0.3
2014-Nov-19 21:32N 46°51' E 031°59'0 0.4
2014-Nov-19 20:33N 46°51' E 031°59'0 0.0
2014-Nov-19 19:32N 46°51' E 031°59'0 0.0
2014-Nov-19 18:32N 46°51' E 031°59'0 0.0
2014-Nov-19 17:32N 46°51' E 031°59'0 0.0
2014-Nov-19 16:32N 46°51' E 031°59'0 0.0
2014-Nov-19 15:32N 46°51' E 031°59'0 0.0
2014-Nov-19 14:32N 46°51' E 031°59'0 0.0
2014-Nov-19 13:32N 46°51' E 031°59'0 0.0
2014-Nov-19 12:32N 46°51' E 031°59'0 0.0
2014-Nov-19 11:29N 46°51' E 031°59'0 0.0
2014-Nov-19 10:32N 46°51' E 031°59'0 0.0
2014-Nov-19 09:32N 46°51' E 031°59'0 0.0
2014-Nov-19 08:32N 46°51' E 031°59'0 0.0
2014-Nov-19 07:32N 46°51' E 031°59'0 0.0
2014-Nov-19 06:32N 46°51' E 031°59'0 0.0
2014-Nov-19 05:32N 46°51' E 031°59'0 0.0
2014-Nov-19 04:32N 46°51' E 031°59'0 0.0
2014-Nov-19 03:32N 46°51' E 031°59'0 0.0
2014-Nov-19 02:32N 46°51' E 031°59'0 0.0
2014-Nov-19 01:32N 46°51' E 031°59'0 0.0
2014-Nov-19 00:32N 46°51' E 031°59'0 0.0
2014-Nov-18 23:32N 46°51' E 031°59'0 0.0
2014-Nov-18 22:32N 46°51' E 031°59'0 0.0
2014-Nov-18 21:32N 46°51' E 031°59'0 0.0
2014-Nov-18 20:32N 46°51' E 031°59'0 0.0
2014-Nov-18 14:05N 46°51' E 031°59'0 0.1
2014-Nov-18 13:32N 46°51' E 031°59'0 0.0
2014-Nov-18 12:31N 46°51' E 031°59'2 1.7
2014-Nov-18 11:33N 46°50' E 031°57'1 1.1
2014-Nov-18 10:33N 46°50' E 031°55'3 2.6
2014-Nov-18 09:33N 46°51' E 031°59'0 0.1
2014-Nov-18 08:31N 46°51' E 031°59'0 0.0
2014-Nov-18 07:31N 46°51' E 031°59'0 0.0
2014-Nov-18 06:31N 46°51' E 031°59'0 0.0
2014-Nov-18 05:28N 46°51' E 031°59'0 0.0
2014-Nov-18 04:31N 46°51' E 031°59'0 0.0
2014-Nov-18 03:31N 46°51' E 031°59'0 0.0
2014-Nov-18 02:31N 46°51' E 031°59'0 0.0
2014-Nov-18 01:31N 46°51' E 031°59'0 0.0
2014-Nov-18 00:31N 46°51' E 031°59'0 0.0
2014-Nov-17 23:28N 46°51' E 031°59'1 1.4
2014-Nov-17 22:30N 46°50' E 031°57'1 1.2
2014-Nov-17 21:33N 46°51' E 031°58'0 0.4
2014-Nov-17 20:32N 46°51' E 031°59'0 0.0
2014-Nov-17 19:32N 46°51' E 031°59'0 0.0
2014-Nov-17 18:32N 46°51' E 031°59'0 0.0
2014-Nov-17 17:32N 46°51' E 031°59'0 0.0
2014-Nov-17 16:32N 46°51' E 031°59'0 0.0
2014-Nov-17 15:29N 46°51' E 031°59'0 0.0
2014-Nov-17 14:32N 46°51' E 031°59'0 0.0
2014-Nov-17 13:32N 46°51' E 031°59'0 0.0
2014-Nov-17 12:32N 46°51' E 031°59'0 0.0
2014-Nov-17 11:32N 46°51' E 031°59'2 1.6
2014-Nov-17 10:31N 46°50' E 031°57'2 1.6
2014-Nov-17 09:32N 46°51' E 031°59'0 0.0
2014-Nov-17 08:32N 46°51' E 031°59'0 0.0
2014-Nov-17 07:32N 46°51' E 031°59'0 0.0
2014-Nov-17 06:26N 46°51' E 031°59'0 0.0
2014-Nov-17 05:32N 46°51' E 031°59'0 0.0
2014-Nov-17 04:32N 46°51' E 031°59'0 0.0
2014-Nov-16 22:05N 46°51' E 031°59'0 0.0
2014-Nov-16 21:29N 46°51' E 031°59'0 0.0
2014-Nov-16 20:32N 46°51' E 031°59'0 0.0
2014-Nov-16 19:32N 46°51' E 031°59'0 0.0
2014-Nov-16 18:31N 46°51' E 031°59'0 0.0
2014-Nov-16 17:26N 46°51' E 031°59'0 0.0
2014-Nov-16 16:32N 46°51' E 031°59'0 0.0
2014-Nov-16 15:32N 46°51' E 031°59'0 0.0
2014-Nov-16 14:32N 46°51' E 031°59'0 0.0
2014-Nov-16 13:32N 46°51' E 031°59'0 0.0
2014-Nov-16 12:32N 46°51' E 031°59'0 0.0
2014-Nov-16 11:33N 46°51' E 031°59'0 0.0
2014-Nov-16 10:33N 46°51' E 031°59'0 0.0
2014-Nov-16 09:33N 46°51' E 031°59'0 0.0
2014-Nov-16 08:33N 46°51' E 031°59'0 0.0
2014-Nov-16 07:33N 46°51' E 031°59'0 0.2
2014-Nov-16 06:31N 46°51' E 031°59'0 0.0
2014-Nov-16 05:31N 46°51' E 031°59'0 0.0
2014-Nov-16 04:31N 46°51' E 031°59'0 0.0
2014-Nov-16 03:31N 46°51' E 031°59'0 0.0
2014-Nov-16 02:31N 46°51' E 031°59'0 0.0
2014-Nov-16 01:31N 46°51' E 031°59'0 0.0
2014-Nov-16 00:31N 46°51' E 031°59'0 0.0
2014-Nov-15 23:31N 46°51' E 031°59'0 0.0
2014-Nov-15 22:31N 46°51' E 031°59'0 0.0
2014-Nov-15 21:31N 46°51' E 031°59'0 0.0
2014-Nov-15 20:31N 46°51' E 031°59'0 0.0
2014-Nov-15 19:31N 46°51' E 031°59'0 0.0
2014-Nov-15 18:33N 46°51' E 031°59'0 0.0
2014-Nov-15 17:33N 46°51' E 031°59'0 0.0
2014-Nov-15 16:33N 46°51' E 031°59'0 0.0
2014-Nov-15 15:32N 46°51' E 031°59'0 0.0
2014-Nov-15 14:32N 46°51' E 031°59'0 0.0
2014-Nov-15 13:32N 46°51' E 031°59'0 0.0
2014-Nov-15 12:26N 46°51' E 031°59'0 0.0
2014-Nov-15 11:32N 46°51' E 031°59'0 0.1
2014-Nov-15 10:28N 46°51' E 031°59'0 0.1
2014-Nov-15 09:31N 46°51' E 031°59'0 0.0
2014-Nov-15 08:31N 46°51' E 031°59'0 0.0
2014-Nov-15 07:31N 46°51' E 031°59'0 0.0
2014-Nov-15 06:32N 46°51' E 031°59'0 0.0
2014-Nov-15 05:31N 46°51' E 031°59'0 0.0
2014-Nov-15 04:31N 46°51' E 031°59'0 0.0
2014-Nov-15 03:28N 46°51' E 031°59'0 0.0
2014-Nov-15 02:32N 46°51' E 031°59'0 0.0
2014-Nov-15 01:32N 46°51' E 031°59'0 0.0
2014-Nov-15 00:32N 46°51' E 031°59'0 0.0
2014-Nov-14 23:26N 46°51' E 031°59'0 0.0
2014-Nov-14 22:32N 46°51' E 031°59'0 0.0
2014-Nov-14 21:32N 46°51' E 031°59'0 0.0
2014-Nov-14 20:32N 46°51' E 031°59'0 0.0
2014-Nov-14 19:29N 46°51' E 031°59'0 0.2
2014-Nov-14 18:32N 46°51' E 031°59'0 0.1
2014-Nov-14 17:33N 46°51' E 031°59'0 0.0
2014-Nov-14 16:31N 46°51' E 031°59'0 0.0
2014-Nov-14 15:32N 46°51' E 031°59'0 0.0
2014-Nov-14 14:32N 46°51' E 031°59'0 0.0
2014-Nov-14 12:33N 46°51' E 031°59'0 0.0
2014-Nov-14 11:33N 46°51' E 031°59'0 0.0
2014-Nov-14 10:29N 46°51' E 031°59'0 0.0
2014-Nov-14 09:32N 46°51' E 031°59'0 0.0
2014-Nov-14 08:31N 46°51' E 031°59'1 0.8
2014-Nov-14 07:33N 46°52' E 031°58'5 4.9
2014-Nov-14 06:33N 46°57' E 031°60'0 0.2
2014-Nov-14 05:32N 46°57' E 031°59'0 0.0
2014-Nov-14 04:32N 46°57' E 031°59'0 0.0
2014-Nov-14 03:32N 46°57' E 031°59'0 0.0
2014-Nov-14 02:32N 46°57' E 031°59'  
Track history (hours):
 
Tides and Currents Weather Stations Pressure Air Temp Water Temp Dewpoint Dewpoint Depression Visibility Wind Speed Wind Dir Waves Ship Positions

Tur

Last reported at 2014-Nov-24 02:29 UTC. Time now 2014-Nov-24 02:48 UTC.
Position N 46°51' E 031°59'.

Length 35 m.

Type: Tug. MMSI: 272064600.

Date/timePositionNaut miles runAvg speedWind from/ knotsBaromVisibWave heightAir tempDewpointWater temp
2014-Nov-24 02:29N 46°51' E 031°59'0 0.0
2014-Nov-24 01:32N 46°51' E 031°59'0 0.0
2014-Nov-24 00:32N 46°51' E 031°59'0 0.0
2014-Nov-23 23:32N 46°51' E 031°59'0 0.0
2014-Nov-23 22:32N 46°51' E 031°59'0 0.0
2014-Nov-23 21:32N 46°51' E 031°59'0 0.0
2014-Nov-23 18:32N 46°51' E 031°59'0 0.0
2014-Nov-23 17:32N 46°51' E 031°59'0 0.0
2014-Nov-23 16:32N 46°51' E 031°59'0 0.0
2014-Nov-23 15:32N 46°51' E 031°59'0 0.0
2014-Nov-23 14:32N 46°51' E 031°59'0 0.0
2014-Nov-23 13:33N 46°51' E 031°59'0 0.0
2014-Nov-23 12:31N 46°51' E 031°59'0 0.0
2014-Nov-23 11:31N 46°51' E 031°59'0 0.0
2014-Nov-23 10:31N 46°51' E 031°59'0 0.0
2014-Nov-23 09:31N 46°51' E 031°59'0 0.0
2014-Nov-23 08:32N 46°51' E 031°59'0 0.0
2014-Nov-23 07:31N 46°51' E 031°59'0 0.0
2014-Nov-23 06:32N 46°51' E 031°59'0 0.2
2014-Nov-23 05:33N 46°51' E 031°59'0 0.2
2014-Nov-23 04:32N 46°51' E 031°59'0 0.0
2014-Nov-23 03:32N 46°51' E 031°59'0 0.0
2014-Nov-23 02:32N 46°51' E 031°59'0 0.0
2014-Nov-23 01:32N 46°51' E 031°59'0 0.0
2014-Nov-23 00:32N 46°51' E 031°59'0 0.0
2014-Nov-22 23:32N 46°51' E 031°59'0 0.0
2014-Nov-22 22:32N 46°51' E 031°59'0 0.0
2014-Nov-22 21:29N 46°51' E 031°59'0 0.0
2014-Nov-22 20:32N 46°51' E 031°59'0 0.0
2014-Nov-22 19:33N 46°51' E 031°59'0 0.0
2014-Nov-22 18:32N 46°51' E 031°59'0 0.0
2014-Nov-22 17:29N 46°51' E 031°59'0 0.3
2014-Nov-22 16:30N 46°51' E 031°59'0 0.1
2014-Nov-22 15:31N 46°51' E 031°59'0 0.0
2014-Nov-22 14:31N 46°51' E 031°59'0 0.0
2014-Nov-22 13:32N 46°51' E 031°59'0 0.0
2014-Nov-22 12:32N 46°51' E 031°59'0 0.0
2014-Nov-22 11:32N 46°51' E 031°59'2 1.5
2014-Nov-22 10:31N 46°50' E 031°57'1 0.9
2014-Nov-22 09:27N 46°50' E 031°56'2 2.4
2014-Nov-22 08:33N 46°51' E 031°59'0 0.0
2014-Nov-22 07:33N 46°51' E 031°59'0 0.0
2014-Nov-22 06:33N 46°51' E 031°59'0 0.0
2014-Nov-22 05:33N 46°51' E 031°59'0 0.0
2014-Nov-22 04:33N 46°51' E 031°59'0 0.0
2014-Nov-22 03:33N 46°51' E 031°59'0 0.0
2014-Nov-22 02:33N 46°51' E 031°59'0 0.0
2014-Nov-22 01:33N 46°51' E 031°59'0 0.0
2014-Nov-22 00:33N 46°51' E 031°59'0 0.0
2014-Nov-21 23:33N 46°51' E 031°59'0 0.0
2014-Nov-21 22:33N 46°51' E 031°59'0 0.0
2014-Nov-21 21:33N 46°51' E 031°59'0 0.0
2014-Nov-21 20:33N 46°51' E 031°59'2 2.4
2014-Nov-21 19:33N 46°50' E 031°56'1 1.1
2014-Nov-21 18:32N 46°50' E 031°57'1 1.3
2014-Nov-21 17:31N 46°51' E 031°59'0 0.0
2014-Nov-21 16:32N 46°51' E 031°59'0 0.0
2014-Nov-21 15:32N 46°51' E 031°59'0 0.0
2014-Nov-21 14:32N 46°51' E 031°59'0 0.0
2014-Nov-21 09:32N 46°51' E 031°59'0 0.0
2014-Nov-21 08:32N 46°51' E 031°59'0 0.0
2014-Nov-21 07:32N 46°51' E 031°59'0 0.0
2014-Nov-21 06:32N 46°51' E 031°59'0 0.0
2014-Nov-21 05:32N 46°51' E 031°59'0 0.0
2014-Nov-21 04:32N 46°51' E 031°59'0 0.0
2014-Nov-21 03:32N 46°51' E 031°59'0 0.0
2014-Nov-21 02:33N 46°51' E 031°59'0 0.0
2014-Nov-21 01:33N 46°51' E 031°59'0 0.0
2014-Nov-21 00:33N 46°51' E 031°59'0 0.0
2014-Nov-20 23:33N 46°51' E 031°59'0 0.0
2014-Nov-20 22:33N 46°51' E 031°59'0 0.0
2014-Nov-20 21:31N 46°51' E 031°59'0 0.0
2014-Nov-20 20:31N 46°51' E 031°59'0 0.0
2014-Nov-20 19:31N 46°51' E 031°59'0 0.0
2014-Nov-20 18:33N 46°51' E 031°59'0 0.0
2014-Nov-20 17:33N 46°51' E 031°59'0 0.0
2014-Nov-20 16:33N 46°51' E 031°59'0 0.0
2014-Nov-20 15:33N 46°51' E 031°59'0 0.0
2014-Nov-20 14:33N 46°51' E 031°59'0 0.0
2014-Nov-20 13:33N 46°51' E 031°59'0 0.0
2014-Nov-20 12:30N 46°51' E 031°59'0 0.0
2014-Nov-20 11:31N 46°51' E 031°59'0 0.0
2014-Nov-20 10:31N 46°51' E 031°59'0 0.0
2014-Nov-20 09:33N 46°51' E 031°59'0 0.0
2014-Nov-20 08:31N 46°51' E 031°59'0 0.0
2014-Nov-20 07:31N 46°51' E 031°59'0 0.0
2014-Nov-20 06:31N 46°51' E 031°59'0 0.0
2014-Nov-20 05:31N 46°51' E 031°59'0 0.0
2014-Nov-20 04:31N 46°51' E 031°59'0 0.0
2014-Nov-20 03:31N 46°51' E 031°59'0 0.0
2014-Nov-20 02:31N 46°51' E 031°59'0 0.0
2014-Nov-20 01:32N 46°51' E 031°59'0 0.0
2014-Nov-20 00:32N 46°51' E 031°59'0 0.0
2014-Nov-19 23:32N 46°51' E 031°59'0 0.0
2014-Nov-19 22:32N 46°51' E 031°59'0 0.3
2014-Nov-19 21:32N 46°51' E 031°59'0 0.4
2014-Nov-19 20:33N 46°51' E 031°59'0 0.0
2014-Nov-19 19:32N 46°51' E 031°59'0 0.0
2014-Nov-19 18:32N 46°51' E 031°59'0 0.0
2014-Nov-19 17:32N 46°51' E 031°59'0 0.0
2014-Nov-19 16:32N 46°51' E 031°59'0 0.0
2014-Nov-19 15:32N 46°51' E 031°59'0 0.0
2014-Nov-19 14:32N 46°51' E 031°59'0 0.0
2014-Nov-19 13:32N 46°51' E 031°59'0 0.0
2014-Nov-19 12:32N 46°51' E 031°59'0 0.0
2014-Nov-19 11:29N 46°51' E 031°59'0 0.0
2014-Nov-19 10:32N 46°51' E 031°59'0 0.0
2014-Nov-19 09:32N 46°51' E 031°59'0 0.0
2014-Nov-19 08:32N 46°51' E 031°59'0 0.0
2014-Nov-19 07:32N 46°51' E 031°59'0 0.0
2014-Nov-19 06:32N 46°51' E 031°59'0 0.0
2014-Nov-19 05:32N 46°51' E 031°59'0 0.0
2014-Nov-19 04:32N 46°51' E 031°59'0 0.0
2014-Nov-19 03:32N 46°51' E 031°59'0 0.0
2014-Nov-19 02:32N 46°51' E 031°59'0 0.0
2014-Nov-19 01:32N 46°51' E 031°59'0 0.0
2014-Nov-19 00:32N 46°51' E 031°59'0 0.0
2014-Nov-18 23:32N 46°51' E 031°59'0 0.0
2014-Nov-18 22:32N 46°51' E 031°59'0 0.0
2014-Nov-18 21:32N 46°51' E 031°59'0 0.0
2014-Nov-18 20:32N 46°51' E 031°59'0 0.0
2014-Nov-18 14:05N 46°51' E 031°59'0 0.1
2014-Nov-18 13:32N 46°51' E 031°59'0 0.0
2014-Nov-18 12:31N 46°51' E 031°59'2 1.7
2014-Nov-18 11:33N 46°50' E 031°57'1 1.1
2014-Nov-18 10:33N 46°50' E 031°55'3 2.6
2014-Nov-18 09:33N 46°51' E 031°59'0 0.1
2014-Nov-18 08:31N 46°51' E 031°59'0 0.0
2014-Nov-18 07:31N 46°51' E 031°59'0 0.0
2014-Nov-18 06:31N 46°51' E 031°59'0 0.0
2014-Nov-18 05:28N 46°51' E 031°59'0 0.0
2014-Nov-18 04:31N 46°51' E 031°59'0 0.0
2014-Nov-18 03:31N 46°51' E 031°59'0 0.0
2014-Nov-18 02:31N 46°51' E 031°59'0 0.0
2014-Nov-18 01:31N 46°51' E 031°59'0 0.0
2014-Nov-18 00:31N 46°51' E 031°59'0 0.0
2014-Nov-17 23:28N 46°51' E 031°59'1 1.4
2014-Nov-17 22:30N 46°50' E 031°57'1 1.2
2014-Nov-17 21:33N 46°51' E 031°58'0 0.4
2014-Nov-17 20:32N 46°51' E 031°59'0 0.0
2014-Nov-17 19:32N 46°51' E 031°59'0 0.0
2014-Nov-17 18:32N 46°51' E 031°59'0 0.0
2014-Nov-17 17:32N 46°51' E 031°59'0 0.0
2014-Nov-17 16:32N 46°51' E 031°59'0 0.0
2014-Nov-17 15:29N 46°51' E 031°59'0 0.0
2014-Nov-17 14:32N 46°51' E 031°59'0 0.0
2014-Nov-17 13:32N 46°51' E 031°59'0 0.0
2014-Nov-17 12:32N 46°51' E 031°59'0 0.0
2014-Nov-17 11:32N 46°51' E 031°59'2 1.6
2014-Nov-17 10:31N 46°50' E 031°57'2 1.6
2014-Nov-17 09:32N 46°51' E 031°59'0 0.0
2014-Nov-17 08:32N 46°51' E 031°59'0 0.0
2014-Nov-17 07:32N 46°51' E 031°59'0 0.0
2014-Nov-17 06:26N 46°51' E 031°59'0 0.0
2014-Nov-17 05:32N 46°51' E 031°59'0 0.0
2014-Nov-17 04:32N 46°51' E 031°59'0 0.0
2014-Nov-16 22:05N 46°51' E 031°59'0 0.0
2014-Nov-16 21:29N 46°51' E 031°59'0 0.0
2014-Nov-16 20:32N 46°51' E 031°59'0 0.0
2014-Nov-16 19:32N 46°51' E 031°59'0 0.0
2014-Nov-16 18:31N 46°51' E 031°59'0 0.0
2014-Nov-16 17:26N 46°51' E 031°59'0 0.0
2014-Nov-16 16:32N 46°51' E 031°59'0 0.0
2014-Nov-16 15:32N 46°51' E 031°59'0 0.0
2014-Nov-16 14:32N 46°51' E 031°59'0 0.0
2014-Nov-16 13:32N 46°51' E 031°59'0 0.0
2014-Nov-16 12:32N 46°51' E 031°59'0 0.0
2014-Nov-16 11:33N 46°51' E 031°59'0 0.0
2014-Nov-16 10:33N 46°51' E 031°59'0 0.0
2014-Nov-16 09:33N 46°51' E 031°59'0 0.0
2014-Nov-16 08:33N 46°51' E 031°59'0 0.0
2014-Nov-16 07:33N 46°51' E 031°59'0 0.2
2014-Nov-16 06:31N 46°51' E 031°59'0 0.0
2014-Nov-16 05:31N 46°51' E 031°59'0 0.0
2014-Nov-16 04:31N 46°51' E 031°59'0 0.0
2014-Nov-16 03:31N 46°51' E 031°59'0 0.0
2014-Nov-16 02:31N 46°51' E 031°59'0 0.0
2014-Nov-16 01:31N 46°51' E 031°59'0 0.0
2014-Nov-16 00:31N 46°51' E 031°59'0 0.0
2014-Nov-15 23:31N 46°51' E 031°59'0 0.0
2014-Nov-15 22:31N 46°51' E 031°59'0 0.0
2014-Nov-15 21:31N 46°51' E 031°59'0 0.0
2014-Nov-15 20:31N 46°51' E 031°59'0 0.0
2014-Nov-15 19:31N 46°51' E 031°59'0 0.0
2014-Nov-15 18:33N 46°51' E 031°59'0 0.0
2014-Nov-15 17:33N 46°51' E 031°59'0 0.0
2014-Nov-15 16:33N 46°51' E 031°59'0 0.0
2014-Nov-15 15:32N 46°51' E 031°59'0 0.0
2014-Nov-15 14:32N 46°51' E 031°59'0 0.0
2014-Nov-15 13:32N 46°51' E 031°59'0 0.0
2014-Nov-15 12:26N 46°51' E 031°59'0 0.0
2014-Nov-15 11:32N 46°51' E 031°59'0 0.1
2014-Nov-15 10:28N 46°51' E 031°59'0 0.1
2014-Nov-15 09:31N 46°51' E 031°59'0 0.0
2014-Nov-15 08:31N 46°51' E 031°59'0 0.0
2014-Nov-15 07:31N 46°51' E 031°59'0 0.0
2014-Nov-15 06:32N 46°51' E 031°59'0 0.0
2014-Nov-15 05:31N 46°51' E 031°59'0 0.0
2014-Nov-15 04:31N 46°51' E 031°59'0 0.0
2014-Nov-15 03:28N 46°51' E 031°59'0 0.0
2014-Nov-15 02:32N 46°51' E 031°59'0 0.0
2014-Nov-15 01:32N 46°51' E 031°59'0 0.0
2014-Nov-15 00:32N 46°51' E 031°59'0 0.0
2014-Nov-14 23:26N 46°51' E 031°59'0 0.0
2014-Nov-14 22:32N 46°51' E 031°59'0 0.0
2014-Nov-14 21:32N 46°51' E 031°59'0 0.0
2014-Nov-14 20:32N 46°51' E 031°59'0 0.0
2014-Nov-14 19:29N 46°51' E 031°59'0 0.2
2014-Nov-14 18:32N 46°51' E 031°59'0 0.1
2014-Nov-14 17:33N 46°51' E 031°59'0 0.0
2014-Nov-14 16:31N 46°51' E 031°59'0 0.0
2014-Nov-14 15:32N 46°51' E 031°59'0 0.0
2014-Nov-14 14:32N 46°51' E 031°59'0 0.0
2014-Nov-14 12:33N 46°51' E 031°59'0 0.0
2014-Nov-14 11:33N 46°51' E 031°59'0 0.0
2014-Nov-14 10:29N 46°51' E 031°59'0 0.0
2014-Nov-14 09:32N 46°51' E 031°59'0 0.0
2014-Nov-14 08:31N 46°51' E 031°59'1 0.8
2014-Nov-14 07:33N 46°52' E 031°58'5 4.9
2014-Nov-14 06:33N 46°57' E 031°60'0 0.2
2014-Nov-14 05:32N 46°57' E 031°59'0 0.0
2014-Nov-14 04:32N 46°57' E 031°59'0 0.0
2014-Nov-14 03:32N 46°57' E 031°59'0 0.0
2014-Nov-14 02:32N 46°57' E 031°59'  

Dump ship's entire track history